createdAt,value
2018-08-23T00:02:32.679Z,13.2
2018-08-23T00:12:31.922Z,12.6
2018-08-23T00:22:31.166Z,13.1
2018-08-23T00:32:30.408Z,13
2018-08-23T00:42:29.647Z,13.2
2018-08-23T00:52:28.891Z,12.7
2018-08-23T01:02:28.131Z,13
2018-08-23T01:12:27.373Z,12.7
2018-08-23T01:22:26.612Z,13
2018-08-23T01:32:25.855Z,12.6
2018-08-23T01:42:25.094Z,13.1
2018-08-23T01:52:24.335Z,12.6
2018-08-23T02:02:23.626Z,12.7
2018-08-23T02:12:22.815Z,12.6
2018-08-23T02:22:22.056Z,12.9
2018-08-23T02:32:21.295Z,13.1
2018-08-23T02:42:20.541Z,12.6
2018-08-23T02:52:19.776Z,12.7
2018-08-23T03:02:19.019Z,13
2018-08-23T03:12:18.262Z,13
2018-08-23T03:22:17.549Z,12.9
2018-08-23T03:32:16.759Z,12.6
2018-08-23T03:42:15.982Z,13.1
2018-08-23T03:52:15.220Z,13.1
2018-08-23T04:02:14.466Z,13
2018-08-23T04:12:13.701Z,12.8
2018-08-23T04:22:12.941Z,13.5
2018-08-23T04:32:12.184Z,14.4
2018-08-23T04:42:11.433Z,14.3
2018-08-23T04:52:10.670Z,14
2018-08-23T05:02:09.914Z,13.8
2018-08-23T05:12:09.153Z,14.3
2018-08-23T05:22:08.394Z,14.4
2018-08-23T05:32:07.636Z,14.4
2018-08-23T05:42:06.876Z,13.9
2018-08-23T05:52:06.120Z,14.1
2018-08-23T06:02:05.360Z,14.4
2018-08-23T06:12:04.602Z,13.9
2018-08-23T06:22:03.841Z,14.4
2018-08-23T06:32:03.084Z,14.1
2018-08-23T06:42:02.328Z,14.8
2018-08-23T06:52:01.572Z,14.2
2018-08-23T07:02:00.813Z,14.4
2018-08-23T07:12:00.052Z,14.1
2018-08-23T07:21:59.292Z,14.2
2018-08-23T07:31:58.534Z,14.6
2018-08-23T07:41:57.811Z,14
2018-08-23T07:51:57.018Z,14.5
2018-08-23T08:01:56.261Z,14.1
2018-08-23T08:11:55.500Z,13.8
2018-08-23T08:21:54.748Z,13.9
2018-08-23T08:31:53.989Z,14.7
2018-08-23T08:41:53.285Z,14
2018-08-23T08:51:52.474Z,14.7
2018-08-23T09:01:51.711Z,14.2
2018-08-23T09:11:51.001Z,14.7
2018-08-23T09:21:50.241Z,14.3
2018-08-23T09:31:49.433Z,14.7
2018-08-23T09:41:48.679Z,14
2018-08-23T09:51:47.917Z,14.1
2018-08-23T10:01:47.158Z,14.5
2018-08-23T10:11:46.455Z,14.2
2018-08-23T10:21:45.643Z,14.3
2018-08-23T10:31:44.881Z,14.7
2018-08-23T10:41:44.127Z,14.4
2018-08-23T10:51:43.374Z,13.9
2018-08-23T11:01:42.613Z,14.5
2018-08-23T11:11:41.859Z,14
2018-08-23T11:21:41.094Z,14.2
2018-08-23T11:31:40.334Z,14.2
2018-08-23T11:41:39.570Z,14.2
2018-08-23T11:51:38.817Z,13.9
2018-08-23T12:01:38.051Z,14.2
2018-08-23T12:11:37.292Z,14.2
2018-08-23T12:21:36.537Z,14.3
2018-08-23T12:31:35.803Z,14.2
2018-08-23T12:41:35.019Z,14
2018-08-23T12:51:34.270Z,14.2
2018-08-23T13:01:33.527Z,14.7
2018-08-23T13:11:32.758Z,13.8
2018-08-23T13:21:31.997Z,14.2
2018-08-23T13:31:31.262Z,14.3
2018-08-23T13:41:30.484Z,14
2018-08-23T13:51:29.716Z,14.4
2018-08-23T14:01:28.966Z,14.1
2018-08-23T14:11:28.205Z,14.6
2018-08-23T14:21:27.450Z,14.2
2018-08-23T14:31:26.685Z,13.8
2018-08-23T14:41:25.928Z,13.3
2018-08-23T14:51:25.173Z,13.6
2018-08-23T15:01:24.410Z,13.6
2018-08-23T15:11:23.669Z,13.5
2018-08-23T15:21:22.900Z,12.7
2018-08-23T15:31:22.135Z,12.8
2018-08-23T15:41:21.428Z,13.3
2018-08-23T15:51:20.619Z,12.5
2018-08-23T16:01:19.874Z,13.2
2018-08-23T16:11:19.116Z,13.2
2018-08-23T16:21:18.352Z,13
2018-08-23T16:31:17.593Z,13.1
2018-08-23T16:41:16.837Z,13.1
2018-08-23T16:51:16.077Z,12.7
2018-08-23T17:01:15.319Z,12.9
2018-08-23T17:11:14.612Z,12.5
2018-08-23T17:21:13.806Z,13.2
2018-08-23T17:31:13.047Z,12.7
2018-08-23T17:41:12.290Z,13.1
2018-08-23T17:51:11.532Z,13
2018-08-23T18:01:10.779Z,12.7
2018-08-23T18:11:10.020Z,12.6
2018-08-23T18:21:09.267Z,12.7
2018-08-23T18:31:08.508Z,12.6
2018-08-23T18:41:07.748Z,12.8
2018-08-23T18:51:06.994Z,12.5
2018-08-23T19:01:06.244Z,12.9
2018-08-23T19:11:05.482Z,12.5
2018-08-23T19:21:04.728Z,13.1
2018-08-23T19:31:03.968Z,12.9
2018-08-23T19:41:03.209Z,13.2
2018-08-23T19:51:02.457Z,12.7
2018-08-23T20:01:01.702Z,12.6
2018-08-23T20:11:00.939Z,13.1
2018-08-23T20:21:00.186Z,13.1
2018-08-23T20:30:59.428Z,12.7
2018-08-23T20:40:58.674Z,13
2018-08-23T20:50:57.910Z,12.7
2018-08-23T21:00:57.156Z,13.1
2018-08-23T21:10:56.405Z,12.7
2018-08-23T21:20:55.697Z,12.8
2018-08-23T21:30:54.878Z,13
2018-08-23T21:40:54.125Z,12.6
2018-08-23T21:50:53.364Z,13
2018-08-23T22:00:52.610Z,13
2018-08-23T22:10:51.848Z,13
2018-08-23T22:20:51.093Z,13
2018-08-23T22:30:50.340Z,13.1
2018-08-23T22:40:49.574Z,13
2018-08-23T22:50:48.815Z,13.1
2018-08-23T23:00:48.058Z,12.8
2018-08-23T23:10:47.299Z,12.6
2018-08-23T23:20:46.540Z,12.7
2018-08-23T23:30:45.780Z,13
2018-08-23T23:40:45.026Z,13.1
2018-08-23T23:50:44.262Z,13.2
